createdAt,value
2019-04-05T00:01:04.933Z,5.10
2019-04-05T00:03:34.180Z,5.20
2019-04-05T00:06:03.458Z,5.22
2019-04-05T00:08:32.771Z,5.20
2019-04-05T00:11:19.694Z,4.55
2019-04-05T00:13:48.975Z,4.80
2019-04-05T00:16:18.272Z,4.62
2019-04-05T00:18:47.516Z,5.00
2019-04-05T00:21:16.789Z,4.50
2019-04-05T00:23:46.057Z,4.30
2019-04-05T00:26:15.361Z,4.80
2019-04-05T00:28:44.634Z,5.28
2019-04-05T00:31:14.241Z,5.10
2019-04-05T00:33:43.530Z,5.33
2019-04-05T00:36:12.743Z,4.40
2019-04-05T00:38:41.924Z,4.75
2019-04-05T00:41:11.255Z,4.35
2019-04-05T00:43:40.479Z,4.65
2019-04-05T00:46:09.684Z,4.50
2019-04-05T00:48:38.946Z,4.80
2019-04-05T00:51:08.210Z,4.90
2019-04-05T00:53:37.457Z,4.50
2019-04-05T00:56:06.729Z,5.25
2019-04-05T00:58:35.913Z,4.92
2019-04-05T01:01:05.493Z,4.50
2019-04-05T01:03:34.895Z,4.53
2019-04-05T01:06:04.332Z,4.17
2019-04-05T01:08:33.500Z,4.50
2019-04-05T01:11:02.720Z,4.15
2019-04-05T01:13:31.893Z,4.72
2019-04-05T01:16:01.237Z,4.33
2019-04-05T01:18:30.528Z,4.30
2019-04-05T01:21:03.108Z,4.17
2019-04-05T01:23:32.404Z,4.30
2019-04-05T01:26:03.142Z,4.08
2019-04-05T01:28:32.457Z,3.98
2019-04-05T01:31:01.754Z,4.20
2019-04-05T01:33:31.017Z,3.72
2019-04-05T01:36:00.226Z,4.17
2019-04-05T01:38:30.688Z,3.95
2019-04-05T01:41:00.722Z,3.35
2019-04-05T01:43:29.916Z,3.83
2019-04-05T01:45:59.909Z,3.50
2019-04-05T01:48:29.192Z,3.58
2019-04-05T01:50:58.385Z,3.30
2019-04-05T01:53:28.832Z,2.98
2019-04-05T01:55:58.332Z,2.60
2019-04-05T01:58:27.756Z,2.60
2019-04-05T02:00:57.073Z,3.05
2019-04-05T02:03:26.434Z,2.83
2019-04-05T02:05:55.752Z,2.52
2019-04-05T02:08:25.408Z,2.92
2019-04-05T02:10:55.381Z,2.65
2019-04-05T02:13:25.189Z,2.70
2019-04-05T02:16:05.741Z,2.85
2019-04-05T02:18:25.625Z,3.35
2019-04-05T02:20:54.935Z,2.50
2019-04-05T02:23:24.284Z,3.35
2019-04-05T02:25:53.575Z,3.40
2019-04-05T02:28:25.371Z,3.55
2019-04-05T02:30:53.940Z,3.10
2019-04-05T02:33:23.299Z,3.62
2019-04-05T02:35:52.938Z,3.58
2019-04-05T02:38:22.400Z,3.62
2019-04-05T02:40:57.983Z,3.65
2019-04-05T02:43:27.958Z,3.55
2019-04-05T02:45:57.695Z,3.80
2019-04-05T02:48:29.245Z,3.60
2019-04-05T02:51:01.573Z,3.50
2019-04-05T02:53:33.530Z,3.83
2019-04-05T02:56:03.718Z,3.60
2019-04-05T02:58:34.488Z,3.80
2019-04-05T03:01:04.168Z,3.75
2019-04-05T03:03:34.205Z,3.62
2019-04-05T03:06:04.632Z,3.45
2019-04-05T03:08:34.348Z,3.60
2019-04-05T03:11:17.303Z,3.80
2019-04-05T03:13:51.915Z,3.80
2019-04-05T03:16:39.997Z,3.60
2019-04-05T03:19:06.835Z,3.60
2019-04-05T03:21:39.359Z,3.72
2019-04-05T03:24:11.997Z,3.90
2019-04-05T03:26:44.763Z,3.45
2019-04-05T03:29:14.164Z,3.72
2019-04-05T03:31:45.900Z,3.72
2019-04-05T03:34:16.426Z,3.90
2019-04-05T03:36:46.400Z,4.00
2019-04-05T03:39:16.054Z,3.75
2019-04-05T03:41:45.405Z,4.17
2019-04-05T03:44:15.139Z,4.05
2019-04-05T03:46:56.512Z,3.50
2019-04-05T03:49:15.629Z,4.00
2019-04-05T03:51:45.877Z,4.03
2019-04-05T03:54:15.404Z,3.40
2019-04-05T03:56:45.103Z,3.90
2019-04-05T03:59:14.614Z,3.60
2019-04-05T04:01:44.000Z,3.60
2019-04-05T04:04:13.529Z,3.45
2019-04-05T04:06:42.929Z,3.50
2019-04-05T04:09:12.295Z,3.25
2019-04-05T04:11:42.312Z,3.80
2019-04-05T04:14:12.733Z,3.75
2019-04-05T04:16:48.911Z,3.12
2019-04-05T04:19:18.428Z,3.05
2019-04-05T04:22:22.770Z,3.80
2019-04-05T04:24:53.015Z,3.85
2019-04-05T04:27:23.809Z,3.80
2019-04-05T04:29:53.869Z,4.00
2019-04-05T04:32:24.014Z,4.20
2019-04-05T04:34:53.780Z,3.50
2019-04-05T04:37:23.415Z,3.87
2019-04-05T04:39:52.999Z,3.80
2019-04-05T04:42:24.048Z,3.62
2019-04-05T04:44:53.936Z,3.90
2019-04-05T04:47:26.932Z,3.45
2019-04-05T04:49:57.777Z,3.80
2019-04-05T04:52:31.331Z,4.00
2019-04-05T04:55:00.588Z,3.60
2019-04-05T04:57:30.170Z,3.72
2019-04-05T04:59:59.930Z,3.52
2019-04-05T05:02:29.404Z,3.90
2019-04-05T05:04:58.965Z,3.95
2019-04-05T05:07:28.967Z,3.65
2019-04-05T05:09:58.789Z,3.90
2019-04-05T05:12:28.470Z,3.50
2019-04-05T05:14:57.920Z,4.20
2019-04-05T05:17:37.950Z,3.20
2019-04-05T05:19:58.858Z,3.17
2019-04-05T05:22:28.440Z,3.10
2019-04-05T05:24:58.982Z,3.55
2019-04-05T05:27:29.784Z,3.00
2019-04-05T05:29:59.528Z,4.65
2019-04-05T05:32:29.191Z,3.45
2019-04-05T05:35:02.361Z,4.37
2019-04-05T05:37:32.689Z,4.08
2019-04-05T05:40:01.251Z,4.42
2019-04-05T05:42:30.675Z,4.65
2019-04-05T05:45:00.402Z,4.90
2019-04-05T05:47:29.843Z,5.83
2019-04-05T05:49:59.304Z,5.42
2019-04-05T05:52:28.718Z,5.42
2019-04-05T05:54:58.222Z,4.85
2019-04-05T05:57:27.672Z,5.30
2019-04-05T05:59:58.510Z,5.33
2019-04-05T06:02:28.462Z,6.15
2019-04-05T06:04:58.090Z,5.00
2019-04-05T06:07:27.631Z,4.65
2019-04-05T06:09:57.125Z,4.65
2019-04-05T06:12:26.918Z,4.10
2019-04-05T06:14:56.375Z,4.15
2019-04-05T06:17:25.870Z,4.87
2019-04-05T06:19:55.541Z,4.50
2019-04-05T06:22:25.020Z,4.35
2019-04-05T06:24:54.504Z,4.22
2019-04-05T06:27:24.084Z,4.20
2019-04-05T06:29:53.589Z,4.30
2019-04-05T06:32:23.006Z,4.55
2019-04-05T06:34:52.605Z,4.10
2019-04-05T06:37:22.145Z,4.60
2019-04-05T06:39:52.157Z,4.58
2019-04-05T06:42:21.569Z,4.10
2019-04-05T06:44:51.040Z,4.90
2019-04-05T06:47:20.451Z,4.55
2019-04-05T06:49:50.110Z,4.80
2019-04-05T06:52:19.566Z,5.40
2019-04-05T06:54:49.029Z,5.60
2019-04-05T06:57:18.670Z,5.80
2019-04-05T06:59:48.110Z,5.90
2019-04-05T07:02:18.539Z,5.45
2019-04-05T07:04:48.345Z,5.53
2019-04-05T07:07:18.042Z,5.70
2019-04-05T07:09:47.929Z,5.87
2019-04-05T07:12:20.326Z,5.23
2019-04-05T07:14:48.556Z,5.17
2019-04-05T07:17:18.046Z,4.97
2019-04-05T07:19:47.614Z,4.90
2019-04-05T07:22:17.098Z,5.60
2019-04-05T07:24:49.389Z,5.08
2019-04-05T07:27:17.781Z,6.72
2019-04-05T07:29:47.363Z,6.00
2019-04-05T07:32:16.918Z,6.47
2019-04-05T07:34:46.443Z,5.90
2019-04-05T07:37:16.061Z,6.40
2019-04-05T07:39:45.465Z,6.43
2019-04-05T07:42:14.966Z,7.00
2019-04-05T07:44:44.648Z,6.30
2019-04-05T07:47:14.117Z,6.97
2019-04-05T07:49:43.565Z,7.03
2019-04-05T07:52:13.255Z,6.83
2019-04-05T07:54:42.834Z,6.50
2019-04-05T07:57:12.382Z,7.23
2019-04-05T07:59:41.977Z,6.87
2019-04-05T08:02:11.489Z,7.60
2019-04-05T08:04:40.937Z,7.57
2019-04-05T08:07:10.635Z,8.33
2019-04-05T08:09:41.620Z,8.10
2019-04-05T08:12:11.077Z,8.53
2019-04-05T08:14:41.059Z,8.40
2019-04-05T08:17:10.542Z,8.53
2019-04-05T08:19:40.032Z,9.33
2019-04-05T08:22:09.590Z,8.40
2019-04-05T08:24:39.044Z,8.97
2019-04-05T08:27:08.524Z,8.43
2019-04-05T08:29:38.295Z,8.93
2019-04-05T08:32:14.496Z,9.80
2019-04-05T08:34:38.953Z,9.40
2019-04-05T08:37:08.412Z,9.40
2019-04-05T08:39:37.876Z,10.27
2019-04-05T08:42:07.373Z,9.63
2019-04-05T08:44:36.910Z,10.37
2019-04-05T08:47:06.390Z,10.50
2019-04-05T08:49:35.883Z,11.10
2019-04-05T08:52:05.309Z,11.43
2019-04-05T08:54:36.805Z,12.10
2019-04-05T08:57:08.109Z,11.50
2019-04-05T08:59:37.973Z,11.60
2019-04-05T09:02:07.376Z,11.60
2019-04-05T09:04:36.853Z,12.37
2019-04-05T09:07:06.364Z,12.93
2019-04-05T09:09:35.809Z,14.13
2019-04-05T09:12:05.242Z,14.43
2019-04-05T09:14:35.024Z,13.73
2019-04-05T09:17:04.485Z,12.80
2019-04-05T09:19:34.024Z,15.60
2019-04-05T09:22:03.634Z,15.03
2019-04-05T09:24:33.105Z,16.50
2019-04-05T09:27:02.613Z,16.90
2019-04-05T09:29:32.275Z,14.83
2019-04-05T09:32:01.754Z,14.50
2019-04-05T09:34:31.213Z,15.10
2019-04-05T09:37:00.693Z,15.93
2019-04-05T09:39:30.208Z,15.40
2019-04-05T09:41:59.689Z,14.60
2019-04-05T09:44:29.184Z,15.40
2019-04-05T09:46:58.826Z,14.70
2019-04-05T09:49:36.742Z,15.40
2019-04-05T09:51:59.574Z,14.87
2019-04-05T09:54:29.115Z,15.20
2019-04-05T09:56:58.718Z,14.40
2019-04-05T09:59:28.223Z,14.80
2019-04-05T10:01:57.724Z,15.67
2019-04-05T10:04:27.497Z,15.37
2019-04-05T10:06:56.985Z,15.37
2019-04-05T10:09:26.430Z,13.07
2019-04-05T10:11:56.024Z,13.07
2019-04-05T10:14:25.496Z,13.27
2019-04-05T10:16:54.970Z,12.90
2019-04-05T10:19:24.657Z,13.80
2019-04-05T10:21:54.204Z,13.77
2019-04-05T10:24:23.670Z,14.93
2019-04-05T10:26:53.309Z,14.20
2019-04-05T10:29:22.781Z,14.20
2019-04-05T10:31:52.300Z,13.00
2019-04-05T10:34:21.949Z,12.47
2019-04-05T10:36:51.394Z,12.70
2019-04-05T10:39:20.817Z,14.50
2019-04-05T10:42:02.835Z,11.97
2019-04-05T10:44:21.829Z,12.57
2019-04-05T10:46:51.241Z,12.80
2019-04-05T10:49:21.033Z,12.83
2019-04-05T10:51:50.463Z,12.20
2019-04-05T10:54:19.932Z,11.60
2019-04-05T10:56:49.663Z,11.27
2019-04-05T10:59:19.225Z,11.63
2019-04-05T11:01:48.707Z,12.17
2019-04-05T11:04:18.205Z,13.80
2019-04-05T11:06:47.693Z,14.70
2019-04-05T11:09:17.197Z,13.30
2019-04-05T11:11:46.663Z,13.50
2019-04-05T11:14:16.255Z,14.70
2019-04-05T11:16:57.948Z,12.77
2019-04-05T11:19:18.755Z,12.60
2019-04-05T11:21:50.895Z,13.67
2019-04-05T11:24:19.444Z,12.57
2019-04-05T11:26:48.909Z,12.97
2019-04-05T11:29:18.493Z,10.53
2019-04-05T11:31:56.905Z,12.00
2019-04-05T11:34:19.231Z,12.13
2019-04-05T11:36:49.277Z,12.13
2019-04-05T11:39:19.094Z,11.43
2019-04-05T11:41:50.506Z,11.60
2019-04-05T11:44:19.974Z,11.50
2019-04-05T11:46:49.859Z,12.13
2019-04-05T11:49:19.404Z,10.80
2019-04-05T11:51:49.402Z,11.97
2019-04-05T11:54:18.888Z,13.53
2019-04-05T11:56:48.429Z,12.40
2019-04-05T11:59:17.957Z,13.00
2019-04-05T12:01:52.396Z,9.40
2019-04-05T12:04:22.080Z,10.13
2019-04-05T12:06:52.146Z,9.13
2019-04-05T12:09:22.147Z,9.83
2019-04-05T12:11:51.837Z,9.43
2019-04-05T12:14:30.228Z,9.30
2019-04-05T12:16:52.564Z,9.73
2019-04-05T12:19:22.071Z,9.77
2019-04-05T12:21:51.573Z,11.10
2019-04-05T12:24:21.098Z,12.13
2019-04-05T12:26:50.764Z,10.90
2019-04-05T12:29:20.352Z,11.60
2019-04-05T12:31:49.796Z,10.97
2019-04-05T12:34:21.388Z,11.97
2019-04-05T12:36:52.608Z,11.60
2019-04-05T12:39:21.941Z,13.33
2019-04-05T12:41:51.401Z,11.03
2019-04-05T12:44:20.906Z,10.93
2019-04-05T12:46:50.422Z,10.37
2019-04-05T12:49:19.969Z,10.13
2019-04-05T12:51:49.528Z,11.17
2019-04-05T12:54:19.226Z,10.87
2019-04-05T12:56:48.709Z,10.97
2019-04-05T12:59:18.266Z,10.53
2019-04-05T13:01:47.910Z,11.37
2019-04-05T13:04:20.398Z,10.63
2019-04-05T13:06:50.598Z,11.67
2019-04-05T13:09:21.389Z,11.13
2019-04-05T13:11:51.241Z,11.70
2019-04-05T13:14:20.789Z,10.90
2019-04-05T13:16:50.390Z,9.60
2019-04-05T13:19:19.885Z,10.77
2019-04-05T13:21:49.452Z,10.40
2019-04-05T13:24:18.929Z,10.87
2019-04-05T13:26:48.355Z,11.20
2019-04-05T13:29:19.643Z,12.23
2019-04-05T13:31:49.338Z,11.20
2019-04-05T13:34:18.947Z,10.17
2019-04-05T13:36:48.836Z,10.30
2019-04-05T13:39:18.387Z,10.37
2019-04-05T13:41:47.882Z,9.40
2019-04-05T13:44:17.362Z,9.57
2019-04-05T13:46:46.868Z,10.30
2019-04-05T13:49:16.548Z,10.57
2019-04-05T13:51:46.138Z,9.90
2019-04-05T13:54:15.719Z,10.93
2019-04-05T13:56:45.465Z,10.40
2019-04-05T13:59:14.998Z,10.77
2019-04-05T14:01:44.512Z,13.13
2019-04-05T14:04:16.867Z,12.00
2019-04-05T14:06:45.906Z,12.73
2019-04-05T14:09:15.764Z,14.17
2019-04-05T14:11:45.731Z,12.63
2019-04-05T14:14:15.297Z,16.40
2019-04-05T14:17:23.081Z,17.77
2019-04-05T14:19:59.201Z,15.37
2019-04-05T14:22:28.772Z,15.60
2019-04-05T14:25:53.590Z,16.20
2019-04-05T14:28:23.269Z,17.33
2019-04-05T14:30:52.792Z,15.33
2019-04-05T14:33:24.330Z,15.27
2019-04-05T14:35:54.698Z,16.10
2019-04-05T14:38:24.991Z,16.23
2019-04-05T14:41:12.730Z,16.43
2019-04-05T14:43:44.625Z,15.50
2019-04-05T14:46:13.496Z,15.10
2019-04-05T14:48:42.952Z,15.87
2019-04-05T14:51:12.715Z,15.10
2019-04-05T14:53:42.307Z,13.80
2019-04-05T14:56:11.914Z,12.80
2019-04-05T14:58:41.410Z,13.23
2019-04-05T15:01:10.912Z,13.67
2019-04-05T15:03:40.575Z,13.67
2019-04-05T15:06:10.145Z,13.80
2019-04-05T15:08:40.030Z,12.87
2019-04-05T15:11:11.070Z,13.40
2019-04-05T15:13:40.902Z,12.50
2019-04-05T15:16:11.632Z,13.73
2019-04-05T15:18:41.919Z,13.60
2019-04-05T15:21:11.349Z,13.53
2019-04-05T15:23:41.362Z,14.07
2019-04-05T15:26:11.458Z,12.70
2019-04-05T15:28:41.067Z,12.07
2019-04-05T15:31:10.962Z,12.00
2019-04-05T15:33:40.478Z,11.70
2019-04-05T15:36:10.157Z,11.73
2019-04-05T15:38:39.743Z,11.43
2019-04-05T15:41:09.321Z,11.07
2019-04-05T15:43:38.903Z,10.70
2019-04-05T15:46:08.411Z,11.90
2019-04-05T15:48:37.953Z,11.97
2019-04-05T15:51:07.898Z,9.97
2019-04-05T15:53:37.558Z,11.17
2019-04-05T15:56:07.300Z,11.60
2019-04-05T15:58:54.852Z,10.53
2019-04-05T16:01:24.419Z,10.27
2019-04-05T16:03:54.075Z,10.10
2019-04-05T16:06:54.226Z,10.93
2019-04-05T16:09:19.055Z,10.77
2019-04-05T16:11:48.640Z,10.97
2019-04-05T16:14:18.277Z,10.50
2019-04-05T16:16:47.894Z,10.80
2019-04-05T16:19:21.827Z,11.27
2019-04-05T16:21:51.363Z,10.67
2019-04-05T16:24:21.291Z,10.27
2019-04-05T16:27:26.771Z,9.80
2019-04-05T16:29:56.319Z,10.73
2019-04-05T16:32:26.015Z,10.53
2019-04-05T16:34:55.620Z,10.80
2019-04-05T16:37:43.059Z,10.70
2019-04-05T16:40:13.097Z,11.07
2019-04-05T16:42:42.614Z,10.90
2019-04-05T16:45:31.344Z,13.27
2019-04-05T16:48:01.352Z,15.17
2019-04-05T16:50:30.920Z,15.43
2019-04-05T16:53:00.865Z,12.20
2019-04-05T16:55:30.488Z,12.20
2019-04-05T16:57:59.972Z,11.80
2019-04-05T17:00:29.574Z,11.40
2019-04-05T17:02:59.269Z,12.30
2019-04-05T17:05:28.831Z,13.40
2019-04-05T17:07:58.440Z,14.57
2019-04-05T17:10:28.125Z,25.10
2019-04-05T17:12:57.634Z,16.20
2019-04-05T17:15:27.222Z,16.93
2019-04-05T17:17:56.737Z,14.33
2019-04-05T17:20:26.308Z,13.27
2019-04-05T17:22:58.344Z,13.70
2019-04-05T17:25:27.517Z,14.80
2019-04-05T17:27:57.244Z,15.40
2019-04-05T17:30:44.873Z,13.93
2019-04-05T17:33:14.936Z,15.00
2019-04-05T17:35:44.918Z,16.60
2019-04-05T17:38:14.404Z,15.70
2019-04-05T17:40:44.985Z,16.10
2019-04-05T17:43:14.672Z,16.57
2019-04-05T17:45:44.709Z,14.95
2019-04-05T17:48:14.253Z,14.93
2019-04-05T17:50:43.905Z,14.73
2019-04-05T17:53:13.642Z,15.63
2019-04-05T17:55:43.493Z,14.83
2019-04-05T17:58:13.256Z,15.80
2019-04-05T18:00:43.565Z,13.43
2019-04-05T18:03:13.173Z,12.53
2019-04-05T18:05:42.679Z,13.50
2019-04-05T18:08:12.523Z,13.05
2019-04-05T18:10:42.228Z,12.27
2019-04-05T18:13:11.867Z,12.97
2019-04-05T18:15:51.871Z,12.95
2019-04-05T18:18:12.671Z,14.47
2019-04-05T18:20:42.365Z,13.73
2019-04-05T18:23:23.907Z,14.43
2019-04-05T18:25:43.194Z,14.30
2019-04-05T18:28:13.061Z,14.18
2019-04-05T18:30:42.594Z,13.40
2019-04-05T18:33:12.172Z,13.00
2019-04-05T18:35:41.786Z,13.80
2019-04-05T18:38:11.361Z,13.70
2019-04-05T18:40:40.945Z,13.28
2019-04-05T18:43:10.459Z,12.80
2019-04-05T18:45:40.386Z,14.23
2019-04-05T18:48:09.973Z,13.50
2019-04-05T18:50:39.656Z,12.18
2019-04-05T18:53:09.324Z,11.28
2019-04-05T18:55:38.867Z,12.13
2019-04-05T18:58:08.546Z,13.95
2019-04-05T19:00:38.103Z,13.17
2019-04-05T19:03:07.647Z,13.25
2019-04-05T19:05:37.231Z,12.80
2019-04-05T19:08:07.219Z,13.90
2019-04-05T19:10:37.614Z,14.65
2019-04-05T19:13:07.311Z,13.03
2019-04-05T19:15:36.940Z,13.00
2019-04-05T19:18:06.505Z,11.97
2019-04-05T19:20:39.515Z,11.40
2019-04-05T19:23:09.114Z,11.33
2019-04-05T19:25:38.707Z,10.70
2019-04-05T19:28:08.192Z,11.27
2019-04-05T19:48:34.874Z,11.75
2019-04-05T19:50:48.501Z,11.25
2019-04-05T19:53:18.029Z,13.93
2019-04-05T19:55:51.892Z,17.73
2019-04-05T19:58:21.446Z,13.07
2019-04-05T20:00:51.161Z,11.27
2019-04-05T20:03:20.739Z,12.40
2019-04-05T20:05:50.287Z,11.93
2019-04-05T20:08:19.884Z,11.50
2019-04-05T20:10:49.462Z,11.20
2019-04-05T20:13:19.547Z,10.97
2019-04-05T20:15:49.158Z,10.75
2019-04-05T20:18:18.750Z,10.43
2019-04-05T20:20:48.369Z,10.33
2019-04-05T20:23:18.013Z,10.30
2019-04-05T20:25:47.581Z,10.17
2019-04-05T20:28:18.073Z,10.72
2019-04-05T20:30:47.729Z,9.87
2019-04-05T20:33:17.401Z,9.53
2019-04-05T20:35:47.021Z,9.83
2019-04-05T20:38:16.642Z,10.00
2019-04-05T20:40:46.287Z,10.05
2019-04-05T20:43:15.847Z,8.78
2019-04-05T20:45:45.461Z,8.70
2019-04-05T20:48:15.218Z,10.17
2019-04-05T20:50:44.867Z,10.08
2019-04-05T20:53:14.594Z,8.88
2019-04-05T20:55:44.091Z,8.95
2019-04-05T20:58:14.278Z,8.27
2019-04-05T21:00:44.113Z,9.33
2019-04-05T21:03:13.694Z,8.83
2019-04-05T21:05:43.544Z,9.23
2019-04-05T21:08:13.036Z,9.90
2019-04-05T21:10:42.551Z,10.03
2019-04-05T21:13:12.303Z,10.18
2019-04-05T21:15:41.808Z,9.85
2019-04-05T21:18:11.427Z,9.63
2019-04-05T21:20:40.998Z,10.43
2019-04-05T21:23:10.623Z,10.85
2019-04-05T21:25:40.278Z,10.82
2019-04-05T21:28:09.816Z,11.45
2019-04-05T21:30:39.333Z,11.88
2019-04-05T21:33:09.069Z,11.25
2019-04-05T21:35:38.573Z,11.25
2019-04-05T21:38:08.466Z,11.12
2019-04-05T21:40:38.094Z,10.58
2019-04-05T21:43:08.232Z,10.82
2019-04-05T21:45:38.116Z,11.80
2019-04-05T21:48:07.617Z,10.58
2019-04-05T21:50:37.095Z,10.53
2019-04-05T21:53:06.649Z,11.25
2019-04-05T21:55:36.325Z,11.12
2019-04-05T21:58:06.226Z,11.35
2019-04-05T22:00:48.887Z,12.45
2019-04-05T22:03:54.221Z,10.70
2019-04-05T22:06:23.784Z,11.83
2019-04-05T22:08:53.491Z,12.25
2019-04-05T22:11:23.035Z,12.55
2019-04-05T22:13:52.542Z,12.30
2019-04-05T22:16:22.218Z,13.08
2019-04-05T22:18:51.761Z,13.50
2019-04-05T22:21:21.332Z,13.88
2019-04-05T22:23:50.975Z,13.78
2019-04-05T22:26:20.610Z,12.95
2019-04-05T22:28:50.567Z,13.43
2019-04-05T22:31:20.309Z,13.65
2019-04-05T22:33:49.861Z,13.32
2019-04-05T22:36:19.541Z,14.40
2019-04-05T22:38:49.242Z,13.03
2019-04-05T22:41:18.745Z,14.60
2019-04-05T22:43:48.274Z,13.60
2019-04-05T22:46:17.807Z,13.70
2019-04-05T22:48:47.297Z,13.95
2019-04-05T22:51:16.803Z,14.87
2019-04-05T22:56:15.175Z,14.40
2019-04-05T22:58:44.688Z,15.18
2019-04-05T23:01:14.123Z,14.60
2019-04-05T23:03:43.600Z,15.00
2019-04-05T23:06:12.986Z,14.50
2019-04-05T23:08:42.496Z,15.03
2019-04-05T23:11:11.913Z,15.25
2019-04-05T23:13:42.756Z,15.08
2019-04-05T23:16:12.233Z,14.23
2019-04-05T23:18:41.676Z,14.68
2019-04-05T23:21:11.155Z,14.85
2019-04-05T23:23:40.541Z,15.65
2019-04-05T23:26:10.154Z,15.03
2019-04-05T23:28:39.519Z,14.50
2019-04-05T23:31:08.848Z,15.03
2019-04-05T23:33:38.228Z,14.23
2019-04-05T23:36:07.644Z,15.38
2019-04-05T23:38:37.477Z,14.43
2019-04-05T23:41:06.825Z,14.30
2019-04-05T23:43:36.280Z,15.32
2019-04-05T23:46:05.842Z,15.55
2019-04-05T23:48:35.241Z,15.60
2019-04-05T23:51:04.584Z,15.13
2019-04-05T23:53:34.025Z,16.32
2019-04-05T23:56:03.373Z,16.52
2019-04-05T23:58:33.064Z,16.60
